sensor_id;sensor_type;location;lat;lon;timestamp;pressure;altitude;pressure_sealevel;temperature;humidity
11912;BME280;6016;41.928;25.556;2024-02-28T00:00:25;99587.50;;;10.90;65.40
11912;BME280;6016;41.928;25.556;2024-02-28T00:02:52;99419.16;;;9.77;64.80
11912;BME280;6016;41.928;25.556;2024-02-28T00:05:20;99570.41;;;10.63;63.96
11912;BME280;6016;41.928;25.556;2024-02-28T00:07:47;99591.56;;;10.73;65.07
11912;BME280;6016;41.928;25.556;2024-02-28T00:10:14;99590.38;;;10.65;65.06
11912;BME280;6016;41.928;25.556;2024-02-28T00:12:41;99592.00;;;10.57;64.72
11912;BME280;6016;41.928;25.556;2024-02-28T00:15:08;99576.38;;;10.44;65.01
11912;BME280;6016;41.928;25.556;2024-02-28T00:17:38;99588.59;;;10.45;65.26
11912;BME280;6016;41.928;25.556;2024-02-28T00:20:07;99533.75;;;10.16;66.06
11912;BME280;6016;41.928;25.556;2024-02-28T00:22:35;99583.97;;;10.58;65.46
11912;BME280;6016;41.928;25.556;2024-02-28T00:25:03;99485.66;;;10.02;64.84
11912;BME280;6016;41.928;25.556;2024-02-28T00:27:32;99594.50;;;10.58;65.03
11912;BME280;6016;41.928;25.556;2024-02-28T00:29:59;99589.25;;;10.58;64.78
11912;BME280;6016;41.928;25.556;2024-02-28T00:32:26;99438.47;;;9.45;64.62
11912;BME280;6016;41.928;25.556;2024-02-28T00:34:53;99435.66;;;9.58;65.02
11912;BME280;6016;41.928;25.556;2024-02-28T00:37:20;99594.38;;;10.60;65.55
11912;BME280;6016;41.928;25.556;2024-02-28T00:39:49;99572.22;;;10.51;65.00
11912;BME280;6016;41.928;25.556;2024-02-28T00:42:16;99580.84;;;10.53;64.30
11912;BME280;6016;41.928;25.556;2024-02-28T00:44:43;99564.97;;;10.43;64.12
11912;BME280;6016;41.928;25.556;2024-02-28T00:47:10;99601.88;;;10.43;63.98
11912;BME280;6016;41.928;25.556;2024-02-28T00:49:37;99590.00;;;10.37;63.50
11912;BME280;6016;41.928;25.556;2024-02-28T00:52:04;99567.31;;;10.13;63.94
11912;BME280;6016;41.928;25.556;2024-02-28T00:54:31;99508.25;;;9.39;65.16
11912;BME280;6016;41.928;25.556;2024-02-28T00:57:01;99567.53;;;9.89;65.78
11912;BME280;6016;41.928;25.556;2024-02-28T00:59:28;99592.97;;;10.11;65.56
11912;BME280;6016;41.928;25.556;2024-02-28T01:01:55;99538.66;;;9.88;65.55
11912;BME280;6016;41.928;25.556;2024-02-28T01:04:22;99590.69;;;10.18;64.88
11912;BME280;6016;41.928;25.556;2024-02-28T01:06:49;99602.06;;;10.19;64.27
11912;BME280;6016;41.928;25.556;2024-02-28T01:09:16;99598.09;;;9.80;65.08
11912;BME280;6016;41.928;25.556;2024-02-28T01:11:43;99391.91;;;8.44;65.35
11912;BME280;6016;41.928;25.556;2024-02-28T01:14:11;99564.94;;;9.66;64.97
11912;BME280;6016;41.928;25.556;2024-02-28T01:16:38;99504.16;;;9.35;65.58
11912;BME280;6016;41.928;25.556;2024-02-28T01:19:05;99592.94;;;9.67;65.51
11912;BME280;6016;41.928;25.556;2024-02-28T01:21:33;99583.47;;;9.65;65.83
11912;BME280;6016;41.928;25.556;2024-02-28T01:24:00;99468.44;;;9.10;65.94
11912;BME280;6016;41.928;25.556;2024-02-28T01:26:29;99513.25;;;9.42;66.42
11912;BME280;6016;41.928;25.556;2024-02-28T01:28:56;99601.97;;;9.97;65.76
11912;BME280;6016;41.928;25.556;2024-02-28T01:31:24;99550.00;;;9.44;65.88
11912;BME280;6016;41.928;25.556;2024-02-28T01:33:51;99582.78;;;9.63;65.99
11912;BME280;6016;41.928;25.556;2024-02-28T01:36:18;99606.13;;;9.67;65.60
11912;BME280;6016;41.928;25.556;2024-02-28T01:38:45;99513.03;;;8.89;65.40
11912;BME280;6016;41.928;25.556;2024-02-28T01:41:12;99472.38;;;8.81;65.08
11912;BME280;6016;41.928;25.556;2024-02-28T01:43:40;99619.63;;;9.74;66.06
11912;BME280;6016;41.928;25.556;2024-02-28T01:46:17;99479.31;;;8.82;65.35
11912;BME280;6016;41.928;25.556;2024-02-28T01:48:48;99574.28;;;9.48;64.58
11912;BME280;6016;41.928;25.556;2024-02-28T01:51:16;99624.66;;;9.77;63.83
11912;BME280;6016;41.928;25.556;2024-02-28T01:53:44;99502.16;;;8.93;64.41
11912;BME280;6016;41.928;25.556;2024-02-28T01:56:12;99589.25;;;9.24;64.84
11912;BME280;6016;41.928;25.556;2024-02-28T01:58:40;99606.72;;;9.48;64.20
11912;BME280;6016;41.928;25.556;2024-02-28T02:01:07;99604.34;;;9.45;65.06
11912;BME280;6016;41.928;25.556;2024-02-28T02:03:35;99591.41;;;9.19;65.27
11912;BME280;6016;41.928;25.556;2024-02-28T02:06:04;99589.59;;;9.31;65.45
11912;BME280;6016;41.928;25.556;2024-02-28T02:08:32;99608.50;;;9.70;66.69
11912;BME280;6016;41.928;25.556;2024-02-28T02:11:00;99514.84;;;9.11;64.55
11912;BME280;6016;41.928;25.556;2024-02-28T02:13:27;99324.97;;;8.03;66.10
11912;BME280;6016;41.928;25.556;2024-02-28T02:15:54;99614.94;;;9.89;65.97
11912;BME280;6016;41.928;25.556;2024-02-28T02:18:21;99535.25;;;8.73;64.81
11912;BME280;6016;41.928;25.556;2024-02-28T02:20:50;99567.72;;;9.42;68.96
11912;BME280;6016;41.928;25.556;2024-02-28T02:23:21;99423.09;;;8.72;68.21
11912;BME280;6016;41.928;25.556;2024-02-28T02:25:48;99614.44;;;9.95;69.65
11912;BME280;6016;41.928;25.556;2024-02-28T02:28:15;99589.59;;;9.77;66.14
11912;BME280;6016;41.928;25.556;2024-02-28T02:30:42;99616.75;;;9.77;65.67
11912;BME280;6016;41.928;25.556;2024-02-28T02:33:10;99596.53;;;9.78;64.68
11912;BME280;6016;41.928;25.556;2024-02-28T02:35:37;99519.84;;;9.14;64.54
11912;BME280;6016;41.928;25.556;2024-02-28T02:38:04;99592.59;;;9.26;65.01
11912;BME280;6016;41.928;25.556;2024-02-28T02:40:33;99545.69;;;9.20;69.64
11912;BME280;6016;41.928;25.556;2024-02-28T02:43:00;99625.00;;;9.95;70.09
11912;BME280;6016;41.928;25.556;2024-02-28T02:45:27;99618.94;;;9.72;65.82
11912;BME280;6016;41.928;25.556;2024-02-28T02:47:54;99629.44;;;9.83;65.86
11912;BME280;6016;41.928;25.556;2024-02-28T02:50:21;99408.88;;;8.52;64.90
11912;BME280;6016;41.928;25.556;2024-02-28T02:52:48;99596.66;;;9.53;65.55
11912;BME280;6016;41.928;25.556;2024-02-28T02:55:15;99562.81;;;9.37;65.11
11912;BME280;6016;41.928;25.556;2024-02-28T02:57:44;99643.34;;;9.85;65.20
11912;BME280;6016;41.928;25.556;2024-02-28T03:00:12;99551.94;;;9.42;64.22
11912;BME280;6016;41.928;25.556;2024-02-28T03:02:39;99635.78;;;9.92;64.90
11912;BME280;6016;41.928;25.556;2024-02-28T03:05:07;99573.00;;;9.42;65.63
11912;BME280;6016;41.928;25.556;2024-02-28T03:07:34;99599.28;;;9.65;66.29
11912;BME280;6016;41.928;25.556;2024-02-28T03:10:01;99651.94;;;9.99;66.09
11912;BME280;6016;41.928;25.556;2024-02-28T03:12:28;99604.94;;;9.26;66.74
11912;BME280;6016;41.928;25.556;2024-02-28T03:14:57;99653.78;;;9.76;68.97
11912;BME280;6016;41.928;25.556;2024-02-28T03:17:24;99654.34;;;9.91;69.14
11912;BME280;6016;41.928;25.556;2024-02-28T03:19:51;99603.22;;;9.59;67.04
11912;BME280;6016;41.928;25.556;2024-02-28T03:22:18;99663.91;;;9.92;66.41
11912;BME280;6016;41.928;25.556;2024-02-28T03:24:45;99657.81;;;10.03;66.37
11912;BME280;6016;41.928;25.556;2024-02-28T03:27:12;99642.84;;;9.92;65.16
11912;BME280;6016;41.928;25.556;2024-02-28T03:29:39;99671.69;;;10.05;66.24
11912;BME280;6016;41.928;25.556;2024-02-28T03:32:08;99679.72;;;9.92;66.33
11912;BME280;6016;41.928;25.556;2024-02-28T03:34:35;99261.97;;;7.44;69.22
11912;BME280;6016;41.928;25.556;2024-02-28T03:37:02;99631.84;;;9.64;67.66
11912;BME280;6016;41.928;25.556;2024-02-28T03:39:29;99613.06;;;9.46;66.88
11912;BME280;6016;41.928;25.556;2024-02-28T03:41:56;99682.25;;;9.93;67.65
11912;BME280;6016;41.928;25.556;2024-02-28T03:44:23;99680.81;;;10.01;68.78
11912;BME280;6016;41.928;25.556;2024-02-28T03:46:51;99609.72;;;9.66;70.30
11912;BME280;6016;41.928;25.556;2024-02-28T03:49:19;99678.53;;;10.07;68.75
11912;BME280;6016;41.928;25.556;2024-02-28T03:51:46;99611.16;;;9.36;67.82
11912;BME280;6016;41.928;25.556;2024-02-28T03:54:14;99676.13;;;10.04;67.44
11912;BME280;6016;41.928;25.556;2024-02-28T03:56:41;99094.06;;;6.39;67.58
11912;BME280;6016;41.928;25.556;2024-02-28T03:59:08;99682.59;;;10.00;67.65
11912;BME280;6016;41.928;25.556;2024-02-28T04:01:35;99671.00;;;9.91;67.95
11912;BME280;6016;41.928;25.556;2024-02-28T04:04:02;99626.94;;;9.48;68.37
11912;BME280;6016;41.928;25.556;2024-02-28T04:06:31;99704.78;;;9.75;69.75
11912;BME280;6016;41.928;25.556;2024-02-28T04:08:58;99685.84;;;9.69;70.67
11912;BME280;6016;41.928;25.556;2024-02-28T04:11:26;99680.13;;;9.76;70.62
11912;BME280;6016;41.928;25.556;2024-02-28T04:13:52;99679.50;;;9.72;71.02
11912;BME280;6016;41.928;25.556;2024-02-28T04:16:19;99679.00;;;9.78;72.07
11912;BME280;6016;41.928;25.556;2024-02-28T04:18:46;99646.94;;;9.62;71.55
11912;BME280;6016;41.928;25.556;2024-02-28T04:21:13;99591.03;;;9.35;71.01
11912;BME280;6016;41.928;25.556;2024-02-28T04:23:42;99674.72;;;9.77;70.83
11912;BME280;6016;41.928;25.556;2024-02-28T04:26:09;99673.53;;;9.81;70.98
11912;BME280;6016;41.928;25.556;2024-02-28T04:28:36;99663.47;;;9.64;70.96
11912;BME280;6016;41.928;25.556;2024-02-28T04:31:03;99673.63;;;9.68;71.69
11912;BME280;6016;41.928;25.556;2024-02-28T04:33:30;99549.63;;;8.92;72.59
11912;BME280;6016;41.928;25.556;2024-02-28T04:35:58;99660.25;;;9.49;72.29
11912;BME280;6016;41.928;25.556;2024-02-28T04:38:25;99671.84;;;9.57;73.22
11912;BME280;6016;41.928;25.556;2024-02-28T04:40:53;99676.75;;;9.62;72.95
11912;BME280;6016;41.928;25.556;2024-02-28T04:43:20;99685.03;;;9.69;73.00
11912;BME280;6016;41.928;25.556;2024-02-28T04:45:47;99667.41;;;9.69;72.59
11912;BME280;6016;41.928;25.556;2024-02-28T04:48:14;99682.16;;;9.72;72.65
11912;BME280;6016;41.928;25.556;2024-02-28T04:50:41;99562.91;;;9.01;72.53
11912;BME280;6016;41.928;25.556;2024-02-28T04:53:08;99677.34;;;9.66;72.02
11912;BME280;6016;41.928;25.556;2024-02-28T04:55:35;99579.28;;;8.94;72.32
11912;BME280;6016;41.928;25.556;2024-02-28T04:58:03;99676.88;;;9.61;72.84
11912;BME280;6016;41.928;25.556;2024-02-28T05:00:31;99685.97;;;9.68;72.91
11912;BME280;6016;41.928;25.556;2024-02-28T05:02:58;99603.25;;;9.13;73.07
11912;BME280;6016;41.928;25.556;2024-02-28T05:05:25;99659.47;;;9.35;72.64
11912;BME280;6016;41.928;25.556;2024-02-28T05:07:52;99698.03;;;9.59;72.92
11912;BME280;6016;41.928;25.556;2024-02-28T05:10:19;99679.84;;;9.45;73.31
11912;BME280;6016;41.928;25.556;2024-02-28T05:12:46;99440.16;;;7.85;73.30
11912;BME280;6016;41.928;25.556;2024-02-28T05:15:15;99703.28;;;9.48;74.11
11912;BME280;6016;41.928;25.556;2024-02-28T05:17:42;99171.22;;;6.35;74.15
11912;BME280;6016;41.928;25.556;2024-02-28T05:20:10;99686.75;;;9.34;73.99
11912;BME280;6016;41.928;25.556;2024-02-28T05:22:36;99686.56;;;9.60;71.85
11912;BME280;6016;41.928;25.556;2024-02-28T05:25:06;99648.72;;;9.38;72.90
11912;BME280;6016;41.928;25.556;2024-02-28T05:27:33;99711.47;;;9.79;72.46
11912;BME280;6016;41.928;25.556;2024-02-28T05:30:01;99712.09;;;9.82;72.20
11912;BME280;6016;41.928;25.556;2024-02-28T05:32:32;99681.28;;;9.71;72.31
11912;BME280;6016;41.928;25.556;2024-02-28T05:35:00;99712.81;;;9.96;72.28
11912;BME280;6016;41.928;25.556;2024-02-28T05:37:27;99702.84;;;9.54;72.27
11912;BME280;6016;41.928;25.556;2024-02-28T05:39:54;99714.84;;;9.92;72.65
11912;BME280;6016;41.928;25.556;2024-02-28T05:42:21;99726.44;;;10.01;72.43
11912;BME280;6016;41.928;25.556;2024-02-28T05:44:48;99724.78;;;10.00;72.07
11912;BME280;6016;41.928;25.556;2024-02-28T05:47:16;99696.50;;;9.79;71.81
11912;BME280;6016;41.928;25.556;2024-02-28T05:49:44;99611.72;;;9.28;72.13
11912;BME280;6016;41.928;25.556;2024-02-28T05:52:11;99733.03;;;10.07;72.51
11912;BME280;6016;41.928;25.556;2024-02-28T05:54:39;99731.47;;;10.16;72.92
11912;BME280;6016;41.928;25.556;2024-02-28T05:57:06;99658.78;;;9.67;71.76
11912;BME280;6016;41.928;25.556;2024-02-28T05:59:33;99541.13;;;8.88;71.33
11912;BME280;6016;41.928;25.556;2024-02-28T06:02:01;99628.63;;;9.49;71.48
11912;BME280;6016;41.928;25.556;2024-02-28T06:04:28;99749.81;;;10.17;71.02
11912;BME280;6016;41.928;25.556;2024-02-28T06:06:56;99710.41;;;9.93;71.29
11912;BME280;6016;41.928;25.556;2024-02-28T06:09:23;99721.06;;;10.03;70.68
11912;BME280;6016;41.928;25.556;2024-02-28T06:11:50;99749.91;;;10.16;70.33
11912;BME280;6016;41.928;25.556;2024-02-28T06:14:17;99752.34;;;10.07;71.31
11912;BME280;6016;41.928;25.556;2024-02-28T06:16:46;99727.66;;;9.85;71.63
11912;BME280;6016;41.928;25.556;2024-02-28T06:19:13;99752.81;;;10.12;71.68
11912;BME280;6016;41.928;25.556;2024-02-28T06:21:41;99744.28;;;10.09;72.25
11912;BME280;6016;41.928;25.556;2024-02-28T06:24:09;99589.00;;;9.05;72.00
11912;BME280;6016;41.928;25.556;2024-02-28T06:26:36;98925.69;;;4.66;72.71
11912;BME280;6016;41.928;25.556;2024-02-28T06:29:03;99754.97;;;9.96;73.19
11912;BME280;6016;41.928;25.556;2024-02-28T06:31:31;99738.44;;;9.71;73.28
11912;BME280;6016;41.928;25.556;2024-02-28T06:33:58;99756.03;;;9.93;73.30
11912;BME280;6016;41.928;25.556;2024-02-28T06:36:25;99758.31;;;9.98;73.05
11912;BME280;6016;41.928;25.556;2024-02-28T06:38:52;99768.50;;;9.91;73.14
11912;BME280;6016;41.928;25.556;2024-02-28T06:41:21;99708.97;;;9.54;73.64
11912;BME280;6016;41.928;25.556;2024-02-28T06:43:48;99769.81;;;9.97;73.55
11912;BME280;6016;41.928;25.556;2024-02-28T06:46:15;99770.66;;;10.09;73.34
11912;BME280;6016;41.928;25.556;2024-02-28T06:48:43;99696.63;;;9.66;73.51
11912;BME280;6016;41.928;25.556;2024-02-28T06:51:10;99765.38;;;10.09;73.50
11912;BME280;6016;41.928;25.556;2024-02-28T06:53:37;99786.81;;;10.27;75.31
11912;BME280;6016;41.928;25.556;2024-02-28T06:56:04;99732.56;;;9.90;72.89
11912;BME280;6016;41.928;25.556;2024-02-28T06:58:33;99771.59;;;10.31;73.17
11912;BME280;6016;41.928;25.556;2024-02-28T07:01:00;99705.50;;;9.88;72.70
11912;BME280;6016;41.928;25.556;2024-02-28T07:03:27;99751.81;;;10.36;73.45
11912;BME280;6016;41.928;25.556;2024-02-28T07:05:54;99788.63;;;10.61;71.83
11912;BME280;6016;41.928;25.556;2024-02-28T07:08:21;99792.56;;;10.66;71.88
11912;BME280;6016;41.928;25.556;2024-02-28T07:10:48;99794.16;;;10.58;72.60
11912;BME280;6016;41.928;25.556;2024-02-28T07:13:19;99787.78;;;10.37;73.03
11912;BME280;6016;41.928;25.556;2024-02-28T07:15:47;99749.69;;;10.07;73.85
11912;BME280;6016;41.928;25.556;2024-02-28T07:18:15;99743.94;;;10.13;73.75
11912;BME280;6016;41.928;25.556;2024-02-28T07:20:42;99790.91;;;10.54;76.58
11912;BME280;6016;41.928;25.556;2024-02-28T07:23:09;99795.34;;;10.65;75.62
11912;BME280;6016;41.928;25.556;2024-02-28T07:25:36;99784.94;;;10.06;74.00
11912;BME280;6016;41.928;25.556;2024-02-28T07:28:04;99767.88;;;9.88;76.17
11912;BME280;6016;41.928;25.556;2024-02-28T07:30:31;99777.09;;;9.82;75.78
11912;BME280;6016;41.928;25.556;2024-02-28T07:32:59;99067.25;;;5.36;76.03
11912;BME280;6016;41.928;25.556;2024-02-28T07:35:26;99790.31;;;10.05;77.46
11912;BME280;6016;41.928;25.556;2024-02-28T07:37:53;99786.47;;;10.20;76.53
11912;BME280;6016;41.928;25.556;2024-02-28T07:40:20;99760.22;;;10.30;76.40
11912;BME280;6016;41.928;25.556;2024-02-28T07:42:48;99792.63;;;10.44;74.80
11912;BME280;6016;41.928;25.556;2024-02-28T07:45:15;99785.50;;;10.55;74.34
11912;BME280;6016;41.928;25.556;2024-02-28T07:47:42;99755.31;;;10.48;74.42
11912;BME280;6016;41.928;25.556;2024-02-28T07:50:11;99786.03;;;10.93;74.69
11912;BME280;6016;41.928;25.556;2024-02-28T07:52:38;99702.63;;;10.69;73.71
11912;BME280;6016;41.928;25.556;2024-02-28T07:55:05;99791.25;;;11.37;73.99
11912;BME280;6016;41.928;25.556;2024-02-28T07:57:33;99754.41;;;11.15;72.12
11912;BME280;6016;41.928;25.556;2024-02-28T07:59:59;99745.13;;;11.20;73.68
11912;BME280;6016;41.928;25.556;2024-02-28T08:02:27;99806.34;;;11.68;72.64
11912;BME280;6016;41.928;25.556;2024-02-28T08:04:53;99704.94;;;11.17;72.23
11912;BME280;6016;41.928;25.556;2024-02-28T08:07:22;99801.88;;;11.90;70.74
11912;BME280;6016;41.928;25.556;2024-02-28T08:09:49;99770.50;;;11.75;72.15
11912;BME280;6016;41.928;25.556;2024-02-28T08:12:16;99699.69;;;11.48;71.94
11912;BME280;6016;41.928;25.556;2024-02-28T08:14:43;99806.09;;;12.23;70.60
11912;BME280;6016;41.928;25.556;2024-02-28T08:17:11;99812.91;;;12.16;69.08
11912;BME280;6016;41.928;25.556;2024-02-28T08:19:41;99806.19;;;12.12;70.19
11912;BME280;6016;41.928;25.556;2024-02-28T08:22:08;99797.44;;;12.12;70.68
11912;BME280;6016;41.928;25.556;2024-02-28T08:24:37;99804.44;;;12.01;70.53
11912;BME280;6016;41.928;25.556;2024-02-28T08:27:05;99808.94;;;12.32;70.10
11912;BME280;6016;41.928;25.556;2024-02-28T08:29:32;99809.13;;;12.40;70.60
11912;BME280;6016;41.928;25.556;2024-02-28T08:32:01;99728.09;;;12.08;70.48
11912;BME280;6016;41.928;25.556;2024-02-28T08:34:28;99809.59;;;12.24;70.77
11912;BME280;6016;41.928;25.556;2024-02-28T08:36:55;99802.47;;;12.56;70.21
11912;BME280;6016;41.928;25.556;2024-02-28T08:39:22;99806.75;;;12.47;71.06
11912;BME280;6016;41.928;25.556;2024-02-28T08:41:51;99801.97;;;13.01;69.28
11912;BME280;6016;41.928;25.556;2024-02-28T08:44:18;99790.41;;;13.32;67.64
11912;BME280;6016;41.928;25.556;2024-02-28T08:46:47;99775.09;;;13.55;66.72
11912;BME280;6016;41.928;25.556;2024-02-28T08:49:14;99697.81;;;13.60;64.68
11912;BME280;6016;41.928;25.556;2024-02-28T08:51:42;99796.22;;;14.60;63.75
11912;BME280;6016;41.928;25.556;2024-02-28T08:54:09;99797.56;;;14.93;62.22
11912;BME280;6016;41.928;25.556;2024-02-28T08:56:37;99798.41;;;15.29;61.85
11912;BME280;6016;41.928;25.556;2024-02-28T08:59:05;99706.38;;;15.10;60.37
11912;BME280;6016;41.928;25.556;2024-02-28T09:01:32;99798.47;;;16.00;58.85
11912;BME280;6016;41.928;25.556;2024-02-28T09:04:01;99767.84;;;16.31;56.92
11912;BME280;6016;41.928;25.556;2024-02-28T09:06:29;99791.63;;;16.92;55.48
11912;BME280;6016;41.928;25.556;2024-02-28T09:08:56;99781.03;;;17.09;55.08
11912;BME280;6016;41.928;25.556;2024-02-28T09:11:23;99778.00;;;17.70;53.55
11912;BME280;6016;41.928;25.556;2024-02-28T09:13:50;99729.34;;;17.60;53.28
11912;BME280;6016;41.928;25.556;2024-02-28T09:16:19;99780.03;;;18.24;52.05
11912;BME280;6016;41.928;25.556;2024-02-28T09:18:46;99759.94;;;18.45;51.18
11912;BME280;6016;41.928;25.556;2024-02-28T09:21:13;99724.78;;;18.56;50.37
11912;BME280;6016;41.928;25.556;2024-02-28T09:23:40;99774.63;;;19.28;50.68
11912;BME280;6016;41.928;25.556;2024-02-28T09:26:07;99738.94;;;18.89;49.18
11912;BME280;6016;41.928;25.556;2024-02-28T09:28:36;99706.38;;;18.62;49.31
11912;BME280;6016;41.928;25.556;2024-02-28T09:31:03;99771.25;;;18.79;50.26
11912;BME280;6016;41.928;25.556;2024-02-28T09:33:31;99772.31;;;18.69;50.70
11912;BME280;6016;41.928;25.556;2024-02-28T09:35:58;99768.22;;;18.50;51.44
11912;BME280;6016;41.928;25.556;2024-02-28T09:38:28;99700.72;;;18.33;51.03
11912;BME280;6016;41.928;25.556;2024-02-28T09:40:55;99765.63;;;18.74;51.19
11912;BME280;6016;41.928;25.556;2024-02-28T09:43:28;99444.81;;;16.47;50.54
11912;BME280;6016;41.928;25.556;2024-02-28T09:45:59;99770.06;;;18.18;51.04
11912;BME280;6016;41.928;25.556;2024-02-28T09:48:27;99735.94;;;17.80;52.36
11912;BME280;6016;41.928;25.556;2024-02-28T09:50:56;99748.50;;;18.20;53.34
11912;BME280;6016;41.928;25.556;2024-02-28T09:53:23;99743.94;;;18.37;52.71
11912;BME280;6016;41.928;25.556;2024-02-28T09:55:51;99716.78;;;17.77;51.55
11912;BME280;6016;41.928;25.556;2024-02-28T09:58:18;99732.56;;;17.95;52.04
11912;BME280;6016;41.928;25.556;2024-02-28T10:00:47;99747.56;;;18.12;52.39
11912;BME280;6016;41.928;25.556;2024-02-28T10:03:17;99694.75;;;17.83;52.17
11912;BME280;6016;41.928;25.556;2024-02-28T10:05:45;99732.47;;;18.28;52.57
11912;BME280;6016;41.928;25.556;2024-02-28T10:08:14;99726.75;;;18.31;52.10
11912;BME280;6016;41.928;25.556;2024-02-28T10:10:45;99724.53;;;18.43;51.80
11912;BME280;6016;41.928;25.556;2024-02-28T10:13:15;99729.28;;;18.56;51.39
11912;BME280;6016;41.928;25.556;2024-02-28T10:15:42;99728.56;;;18.94;51.13
11912;BME280;6016;41.928;25.556;2024-02-28T10:18:09;99692.56;;;19.05;50.19
11912;BME280;6016;41.928;25.556;2024-02-28T10:20:36;99614.19;;;18.81;49.49
11912;BME280;6016;41.928;25.556;2024-02-28T10:23:04;99483.50;;;18.18;49.25
11912;BME280;6016;41.928;25.556;2024-02-28T10:25:33;99698.16;;;19.33;48.84
11912;BME280;6016;41.928;25.556;2024-02-28T10:28:00;99688.56;;;19.39;48.96
11912;BME280;6016;41.928;25.556;2024-02-28T10:30:27;99690.06;;;19.42;48.45
11912;BME280;6016;41.928;25.556;2024-02-28T10:32:55;99683.16;;;19.47;48.73
11912;BME280;6016;41.928;25.556;2024-02-28T10:35:22;99495.28;;;18.62;49.38
11912;BME280;6016;41.928;25.556;2024-02-28T10:37:51;99630.53;;;19.54;49.01
11912;BME280;6016;41.928;25.556;2024-02-28T10:40:20;99672.59;;;19.76;48.35
11912;BME280;6016;41.928;25.556;2024-02-28T10:42:49;99673.28;;;19.63;48.84
11912;BME280;6016;41.928;25.556;2024-02-28T10:45:17;99649.19;;;19.63;48.31
11912;BME280;6016;41.928;25.556;2024-02-28T10:47:45;99675.44;;;19.89;47.94
11912;BME280;6016;41.928;25.556;2024-02-28T10:50:13;99663.56;;;19.77;48.19
11912;BME280;6016;41.928;25.556;2024-02-28T10:52:44;99640.25;;;19.40;47.68
11912;BME280;6016;41.928;25.556;2024-02-28T10:55:13;99655.38;;;19.48;48.12
11912;BME280;6016;41.928;25.556;2024-02-28T10:57:44;99573.72;;;19.07;48.17
11912;BME280;6016;41.928;25.556;2024-02-28T11:00:16;99573.72;;;19.22;49.17
11912;BME280;6016;41.928;25.556;2024-02-28T11:02:44;99640.22;;;19.71;47.82
11912;BME280;6016;41.928;25.556;2024-02-28T11:05:12;99630.44;;;19.63;47.88
11912;BME280;6016;41.928;25.556;2024-02-28T11:07:40;99619.75;;;19.48;49.78
11912;BME280;6016;41.928;25.556;2024-02-28T11:10:09;99545.41;;;19.13;49.14
11912;BME280;6016;41.928;25.556;2024-02-28T11:12:37;99600.16;;;19.62;48.48
11912;BME280;6016;41.928;25.556;2024-02-28T11:15:05;99616.13;;;19.71;49.02
11912;BME280;6016;41.928;25.556;2024-02-28T11:17:36;99522.53;;;19.10;49.52
11912;BME280;6016;41.928;25.556;2024-02-28T11:20:11;99597.38;;;19.86;48.94
11912;BME280;6016;41.928;25.556;2024-02-28T11:22:39;99597.94;;;19.81;48.46
11912;BME280;6016;41.928;25.556;2024-02-28T11:25:07;99600.31;;;19.91;49.02
11912;BME280;6016;41.928;25.556;2024-02-28T11:27:45;99593.41;;;19.96;48.87
11912;BME280;6016;41.928;25.556;2024-02-28T11:30:13;99480.56;;;19.26;48.16
11912;BME280;6016;41.928;25.556;2024-02-28T11:32:42;99583.91;;;19.79;49.03
11912;BME280;6016;41.928;25.556;2024-02-28T11:35:09;99585.00;;;19.85;48.23
11912;BME280;6016;41.928;25.556;2024-02-28T11:37:38;99576.22;;;20.06;47.64
11912;BME280;6016;41.928;25.556;2024-02-28T11:40:07;99390.16;;;19.00;48.43
11912;BME280;6016;41.928;25.556;2024-02-28T11:42:35;99541.72;;;19.81;47.19
11912;BME280;6016;41.928;25.556;2024-02-28T11:45:02;99570.13;;;19.97;48.32
11912;BME280;6016;41.928;25.556;2024-02-28T11:47:31;99533.47;;;19.98;48.15
11912;BME280;6016;41.928;25.556;2024-02-28T11:50:01;99563.06;;;20.33;48.39
11912;BME280;6016;41.928;25.556;2024-02-28T11:52:28;99332.91;;;18.94;48.17
11912;BME280;6016;41.928;25.556;2024-02-28T11:54:57;99561.91;;;20.42;47.58
11912;BME280;6016;41.928;25.556;2024-02-28T11:57:24;99553.50;;;20.45;47.63
11912;BME280;6016;41.928;25.556;2024-02-28T11:59:51;99552.97;;;20.35;48.12
11912;BME280;6016;41.928;25.556;2024-02-28T12:02:18;99401.16;;;19.26;49.01
11912;BME280;6016;41.928;25.556;2024-02-28T12:04:45;99543.81;;;20.22;49.19
11912;BME280;6016;41.928;25.556;2024-02-28T12:07:16;99546.16;;;20.32;48.59
11912;BME280;6016;41.928;25.556;2024-02-28T12:09:43;99537.97;;;20.41;48.39
11912;BME280;6016;41.928;25.556;2024-02-28T12:12:12;99486.53;;;20.23;48.36
11912;BME280;6016;41.928;25.556;2024-02-28T12:14:39;99520.16;;;20.55;47.67
11912;BME280;6016;41.928;25.556;2024-02-28T12:17:08;99477.31;;;20.33;47.25
11912;BME280;6016;41.928;25.556;2024-02-28T12:19:35;99525.78;;;20.38;47.67
11912;BME280;6016;41.928;25.556;2024-02-28T12:22:02;99500.31;;;20.20;48.54
11912;BME280;6016;41.928;25.556;2024-02-28T12:24:31;99481.16;;;20.23;48.99
11912;BME280;6016;41.928;25.556;2024-02-28T12:26:58;99516.84;;;20.52;48.57
11912;BME280;6016;41.928;25.556;2024-02-28T12:29:25;99511.91;;;20.56;48.87
11912;BME280;6016;41.928;25.556;2024-02-28T12:31:52;99514.50;;;20.71;47.42
11912;BME280;6016;41.928;25.556;2024-02-28T12:34:19;99515.69;;;20.90;47.00
11912;BME280;6016;41.928;25.556;2024-02-28T12:36:46;99511.50;;;21.16;46.81
11912;BME280;6016;41.928;25.556;2024-02-28T12:39:13;99502.69;;;21.36;47.10
11912;BME280;6016;41.928;25.556;2024-02-28T12:41:42;99448.94;;;21.16;45.45
11912;BME280;6016;41.928;25.556;2024-02-28T12:44:09;99426.03;;;21.06;46.28
11912;BME280;6016;41.928;25.556;2024-02-28T12:46:36;99495.84;;;21.75;45.82
11912;BME280;6016;41.928;25.556;2024-02-28T12:49:03;99495.44;;;21.85;45.80
11912;BME280;6016;41.928;25.556;2024-02-28T12:51:38;99469.72;;;21.49;45.55
11912;BME280;6016;41.928;25.556;2024-02-28T12:54:06;99488.13;;;21.65;45.68
11912;BME280;6016;41.928;25.556;2024-02-28T12:56:34;99436.47;;;21.50;45.56
11912;BME280;6016;41.928;25.556;2024-02-28T12:59:02;99398.84;;;21.30;46.26
11912;BME280;6016;41.928;25.556;2024-02-28T13:01:30;99477.44;;;21.79;44.61
11912;BME280;6016;41.928;25.556;2024-02-28T13:03:57;99464.22;;;21.71;44.96
11912;BME280;6016;41.928;25.556;2024-02-28T13:06:24;99460.41;;;21.45;45.33